createdAt,value
2023-05-25T00:01:44.197Z,17.95
2023-05-25T00:04:11.636Z,18.60
2023-05-25T00:06:41.514Z,20.77
2023-05-25T00:09:09.058Z,16.88
2023-05-25T00:11:36.323Z,18.85
2023-05-25T00:14:02.998Z,16.70
2023-05-25T00:16:29.950Z,17.52
2023-05-25T00:18:57.756Z,18.67
2023-05-25T00:21:25.891Z,21.25
2023-05-25T00:23:52.629Z,17.67
2023-05-25T00:26:19.318Z,16.17
2023-05-25T00:28:46.136Z,18.08
2023-05-25T00:31:12.857Z,16.77
2023-05-25T00:33:39.846Z,18.77
2023-05-25T00:36:07.040Z,18.75
2023-05-25T00:38:33.751Z,19.90
2023-05-25T00:41:00.922Z,21.77
2023-05-25T00:43:27.591Z,19.90
2023-05-25T00:45:54.538Z,18.83
2023-05-25T00:48:22.813Z,18.27
2023-05-25T00:50:53.689Z,18.23
2023-05-25T00:53:21.102Z,16.95
2023-05-25T00:55:59.975Z,17.00
2023-05-25T00:58:31.203Z,17.08
2023-05-25T01:01:00.360Z,19.25
2023-05-25T01:03:31.418Z,14.80
2023-05-25T01:05:59.505Z,17.65
2023-05-25T01:08:27.513Z,20.38
2023-05-25T01:10:57.403Z,17.25
2023-05-25T01:13:24.515Z,17.67
2023-05-25T01:15:51.432Z,21.63
2023-05-25T01:18:18.300Z,17.88
2023-05-25T01:21:18.200Z,22.20
2023-05-25T01:23:52.960Z,18.52
2023-05-25T01:26:23.922Z,18.15
2023-05-25T01:28:53.025Z,15.02
2023-05-25T01:31:23.655Z,20.63
2023-05-25T01:33:52.207Z,17.23
2023-05-25T01:36:19.503Z,24.23
2023-05-25T01:38:46.249Z,16.70
2023-05-25T01:41:13.063Z,18.48
2023-05-25T01:43:40.036Z,18.02
2023-05-25T01:46:25.920Z,17.63
2023-05-25T01:49:03.045Z,18.13
2023-05-25T01:51:39.005Z,13.98
2023-05-25T01:54:20.326Z,20.67
2023-05-25T01:56:49.003Z,18.73
2023-05-25T01:59:19.636Z,20.65
2023-05-25T02:01:51.046Z,20.45
2023-05-25T02:04:19.896Z,18.50
2023-05-25T02:06:49.172Z,20.87
2023-05-25T02:09:16.052Z,18.77
2023-05-25T02:11:42.974Z,20.70
2023-05-25T02:14:11.159Z,19.42
2023-05-25T02:16:38.047Z,23.15
2023-05-25T02:19:04.748Z,24.50
2023-05-25T02:21:31.493Z,21.60
2023-05-25T02:23:58.344Z,21.48
2023-05-25T02:26:25.162Z,17.65
2023-05-25T02:28:52.207Z,19.55
2023-05-25T02:31:20.336Z,23.37
2023-05-25T02:33:47.168Z,20.02
2023-05-25T02:36:13.826Z,20.70
2023-05-25T02:38:40.478Z,20.23
2023-05-25T02:41:07.205Z,19.92
2023-05-25T02:43:34.397Z,25.30
2023-05-25T02:46:01.100Z,13.93
2023-05-25T02:48:27.792Z,17.90
2023-05-25T02:50:54.464Z,18.17
2023-05-25T02:53:21.418Z,18.67
2023-05-25T02:55:48.035Z,23.23
2023-05-25T02:58:14.716Z,21.40
2023-05-25T03:00:43.061Z,20.35
2023-05-25T03:03:10.032Z,24.95
2023-05-25T03:05:36.946Z,30.17
2023-05-25T03:08:03.623Z,21.30
2023-05-25T03:10:30.307Z,20.05
2023-05-25T03:12:56.937Z,18.02
2023-05-25T03:15:23.574Z,23.75
2023-05-25T03:17:50.557Z,24.83
2023-05-25T03:20:17.252Z,20.03
2023-05-25T03:22:43.889Z,21.05
2023-05-25T03:25:13.559Z,22.55
2023-05-25T03:27:40.274Z,20.30
2023-05-25T03:30:07.723Z,17.65
2023-05-25T03:32:36.997Z,19.63
2023-05-25T03:35:05.782Z,24.30
2023-05-25T03:37:32.977Z,24.75
2023-05-25T03:39:59.660Z,22.10
2023-05-25T03:42:27.262Z,25.02
2023-05-25T03:44:53.950Z,22.73
2023-05-25T03:47:20.606Z,24.13
2023-05-25T03:49:47.245Z,27.23
2023-05-25T03:52:13.900Z,22.67
2023-05-25T03:54:40.651Z,27.88
2023-05-25T03:57:07.254Z,28.02
2023-05-25T03:59:33.838Z,27.90
2023-05-25T04:02:01.827Z,22.45
2023-05-25T04:04:30.122Z,25.92
2023-05-25T04:06:56.770Z,27.88
2023-05-25T04:09:23.469Z,27.88
2023-05-25T04:11:50.200Z,24.50
2023-05-25T04:14:16.979Z,27.85
2023-05-25T04:16:46.015Z,30.17
2023-05-25T04:19:13.054Z,30.95
2023-05-25T04:21:39.660Z,21.80
2023-05-25T04:24:07.851Z,26.88
2023-05-25T04:26:34.901Z,24.83
2023-05-25T04:29:02.512Z,23.33
2023-05-25T04:31:29.236Z,29.80
2023-05-25T04:33:56.436Z,28.42
2023-05-25T04:36:23.913Z,24.00
2023-05-25T04:38:52.361Z,23.52
2023-05-25T04:41:19.263Z,25.58
2023-05-25T04:44:00.946Z,23.20
2023-05-25T04:46:32.680Z,26.33
2023-05-25T04:48:59.573Z,32.08
2023-05-25T04:51:26.673Z,23.92
2023-05-25T04:53:53.382Z,25.87
2023-05-25T04:56:22.369Z,22.42
2023-05-25T04:58:48.999Z,27.83
2023-05-25T05:01:16.767Z,18.77
2023-05-25T05:03:43.450Z,30.35
2023-05-25T05:06:10.926Z,22.88
2023-05-25T05:08:37.633Z,23.00
2023-05-25T05:11:04.310Z,21.88
2023-05-25T05:13:30.952Z,25.48
2023-05-25T05:15:57.571Z,29.85
2023-05-25T05:18:24.263Z,23.85
2023-05-25T05:20:50.934Z,20.92
2023-05-25T05:23:17.555Z,31.45
2023-05-25T05:25:44.549Z,24.45
2023-05-25T05:28:11.636Z,19.77
2023-05-25T05:30:38.257Z,20.83
2023-05-25T05:33:04.972Z,22.38
2023-05-25T05:35:31.755Z,20.27
2023-05-25T05:38:01.581Z,23.63
2023-05-25T05:40:28.220Z,24.00
2023-05-25T05:42:54.883Z,22.88
2023-05-25T05:45:21.551Z,22.73
2023-05-25T05:47:48.215Z,23.13
2023-05-25T05:50:14.871Z,21.95
2023-05-25T05:52:41.574Z,26.15
2023-05-25T05:55:08.779Z,19.35
2023-05-25T05:57:35.453Z,20.90
2023-05-25T06:00:05.309Z,23.00
2023-05-25T06:02:31.982Z,17.20
2023-05-25T06:04:58.748Z,21.25
2023-05-25T06:07:25.625Z,23.10
2023-05-25T06:09:52.548Z,22.50
2023-05-25T06:12:19.221Z,22.30
2023-05-25T06:14:49.980Z,22.83
2023-05-25T06:17:16.661Z,19.58
2023-05-25T06:19:43.652Z,28.17
2023-05-25T06:22:10.502Z,24.50
2023-05-25T06:24:37.273Z,20.92
2023-05-25T06:27:04.247Z,18.58
2023-05-25T06:33:40.242Z,22.23
2023-05-25T06:36:07.596Z,20.13
2023-05-25T06:38:34.505Z,24.10
2023-05-25T06:41:05.631Z,24.70
2023-05-25T06:43:32.532Z,22.15
2023-05-25T06:45:59.742Z,27.63
2023-05-25T06:48:26.656Z,19.63
2023-05-25T06:50:53.338Z,24.33
2023-05-25T06:53:19.978Z,23.98
2023-05-25T06:55:46.854Z,21.00
2023-05-25T06:58:13.896Z,24.10
2023-05-25T07:00:40.733Z,24.57
2023-05-25T07:03:07.494Z,21.65
2023-05-25T07:05:34.165Z,29.27
2023-05-25T07:08:01.886Z,22.13
2023-05-25T07:10:28.569Z,26.58
2023-05-25T07:12:55.170Z,26.85
2023-05-25T07:15:22.919Z,25.20
2023-05-25T07:17:50.328Z,20.98
2023-05-25T07:20:17.262Z,22.92
2023-05-25T07:22:47.230Z,24.83
2023-05-25T07:25:14.821Z,22.48
2023-05-25T07:27:43.037Z,20.67
2023-05-25T07:30:10.411Z,23.05
2023-05-25T07:32:38.666Z,18.42
2023-05-25T07:35:06.004Z,23.65
2023-05-25T07:37:32.885Z,14.38
2023-05-25T07:39:59.520Z,20.10
2023-05-25T07:42:26.193Z,16.80
2023-05-25T07:44:52.834Z,13.90
2023-05-25T07:47:19.473Z,17.52
2023-05-25T07:49:46.420Z,17.02
2023-05-25T07:52:13.210Z,16.67
2023-05-25T07:54:40.603Z,17.40
2023-05-25T07:57:08.292Z,12.50
2023-05-25T07:59:35.636Z,15.55
2023-05-25T08:02:02.801Z,17.13
2023-05-25T08:04:30.791Z,15.23
2023-05-25T08:06:57.590Z,17.08
2023-05-25T08:09:24.389Z,16.33
2023-05-25T08:11:55.963Z,15.57
2023-05-25T08:14:30.603Z,13.98
2023-05-25T08:16:57.319Z,17.60
2023-05-25T08:19:24.047Z,16.53
2023-05-25T08:21:51.903Z,19.17
2023-05-25T08:24:18.752Z,15.60
2023-05-25T08:26:54.724Z,15.93
2023-05-25T08:29:22.507Z,9.73
2023-05-25T08:31:50.637Z,11.52
2023-05-25T08:34:17.414Z,9.40
2023-05-25T08:36:45.187Z,13.30
2023-05-25T08:39:12.930Z,15.20
2023-05-25T08:41:46.458Z,12.15
2023-05-25T08:44:14.786Z,13.38
2023-05-25T08:46:43.751Z,12.85
2023-05-25T08:49:15.356Z,8.85
2023-05-25T08:52:03.380Z,16.13
2023-05-25T08:54:34.754Z,16.17
2023-05-25T08:57:16.109Z,18.38
2023-05-25T09:00:42.783Z,14.75
2023-05-25T09:03:16.152Z,16.85
2023-05-25T09:05:43.555Z,17.00
2023-05-25T09:10:39.312Z,10.07
2023-05-25T09:13:20.578Z,12.63
2023-05-25T09:15:49.891Z,10.13
2023-05-25T09:18:20.708Z,13.40
2023-05-25T09:20:47.974Z,14.88
2023-05-25T09:23:15.437Z,12.80
2023-05-25T09:25:42.675Z,12.88
2023-05-25T09:30:42.250Z,13.38
2023-05-25T09:33:19.243Z,12.27
2023-05-25T09:35:46.861Z,15.38
2023-05-25T09:40:41.965Z,11.32
2023-05-25T09:43:08.876Z,9.90
2023-05-25T09:45:38.642Z,13.87
2023-05-25T09:48:07.723Z,12.95
2023-05-25T09:50:36.233Z,11.02
2023-05-25T09:53:03.303Z,12.00
2023-05-25T09:55:40.315Z,9.98
2023-05-25T09:58:17.432Z,12.32
2023-05-25T10:00:48.501Z,8.63
2023-05-25T10:03:16.032Z,15.20
2023-05-25T10:05:42.750Z,11.57
2023-05-25T10:08:11.013Z,13.00
2023-05-25T10:10:39.313Z,10.27
2023-05-25T10:13:08.761Z,16.27
2023-05-25T10:15:40.211Z,14.05
2023-05-25T10:18:08.194Z,8.65
2023-05-25T10:20:35.753Z,10.82
2023-05-25T10:25:44.099Z,9.82
2023-05-25T10:28:22.089Z,13.68
2023-05-25T10:30:51.135Z,10.25
2023-05-25T10:33:19.251Z,15.63
2023-05-25T10:36:02.389Z,11.80
2023-05-25T10:38:34.367Z,9.80
2023-05-25T10:41:02.220Z,10.05
2023-05-25T10:43:29.180Z,10.98
2023-05-25T10:45:57.582Z,11.05
2023-05-25T10:48:25.416Z,10.18
2023-05-25T10:50:52.345Z,9.45
2023-05-25T10:53:21.336Z,7.53
2023-05-25T10:55:54.142Z,11.40
2023-05-25T10:58:22.522Z,11.15
2023-05-25T11:01:08.282Z,11.10
2023-05-25T11:03:46.936Z,12.43
2023-05-25T11:06:15.528Z,8.93
2023-05-25T11:09:05.988Z,13.98
2023-05-25T11:11:47.684Z,8.65
2023-05-25T11:14:38.618Z,9.25
2023-05-25T11:17:25.266Z,11.73
2023-05-25T11:19:54.287Z,8.65
2023-05-25T11:22:37.912Z,9.05
2023-05-25T11:25:37.789Z,16.15
2023-05-25T11:28:06.963Z,10.63
2023-05-25T11:30:33.947Z,9.63
2023-05-25T11:33:04.582Z,10.07
2023-05-25T11:35:33.898Z,11.57
2023-05-25T11:38:01.258Z,9.93
2023-05-25T11:40:31.496Z,11.18
2023-05-25T11:43:00.992Z,10.35
2023-05-25T11:45:34.059Z,11.80
2023-05-25T11:48:00.852Z,13.18
2023-05-25T11:50:28.467Z,13.87
2023-05-25T11:55:23.168Z,12.27
2023-05-25T11:57:56.855Z,16.27
2023-05-25T12:00:27.681Z,16.00
2023-05-25T12:02:56.108Z,13.77
2023-05-25T12:05:23.597Z,14.68
2023-05-25T12:07:50.960Z,13.00
2023-05-25T12:10:18.259Z,14.32
2023-05-25T12:12:52.404Z,11.05
2023-05-25T12:15:23.882Z,11.20
2023-05-25T12:17:52.151Z,11.05
2023-05-25T12:20:19.892Z,11.95
2023-05-25T12:22:47.075Z,12.48
2023-05-25T12:25:16.098Z,10.88
2023-05-25T12:27:42.812Z,9.27
2023-05-25T12:30:10.651Z,13.73
2023-05-25T12:33:02.914Z,11.45
2023-05-25T12:35:43.897Z,14.32
2023-05-25T12:38:12.436Z,11.00
2023-05-25T12:40:39.348Z,11.55
2023-05-25T12:43:06.054Z,15.30
2023-05-25T12:45:33.001Z,14.40
2023-05-25T12:48:00.205Z,11.98
2023-05-25T12:50:29.516Z,10.90
2023-05-25T12:53:01.829Z,10.57
2023-05-25T12:55:31.140Z,10.85
2023-05-25T12:58:05.920Z,9.95
2023-05-25T13:00:34.106Z,11.20
2023-05-25T13:03:01.257Z,10.82
2023-05-25T13:05:30.037Z,10.50
2023-05-25T13:07:58.260Z,9.60
2023-05-25T13:10:25.715Z,12.45
2023-05-25T13:12:53.925Z,13.40
2023-05-25T13:15:23.927Z,10.15
2023-05-25T13:17:55.544Z,7.55
2023-05-25T13:20:25.164Z,10.45
2023-05-25T13:22:53.265Z,9.02
2023-05-25T13:25:22.295Z,9.75
2023-05-25T13:27:53.092Z,10.57
2023-05-25T13:30:22.763Z,9.48
2023-05-25T13:32:51.772Z,7.40
2023-05-25T13:35:23.470Z,6.20
2023-05-25T13:37:51.455Z,8.48
2023-05-25T13:40:18.568Z,10.40
2023-05-25T13:42:45.219Z,7.22
2023-05-25T13:45:11.875Z,10.00
2023-05-25T13:47:38.907Z,8.63
2023-05-25T13:50:08.846Z,7.22
2023-05-25T13:52:37.042Z,9.77
2023-05-25T13:55:04.072Z,8.57
2023-05-25T13:57:30.736Z,9.23
2023-05-25T13:59:57.397Z,9.53
2023-05-25T14:02:24.237Z,12.13
2023-05-25T14:04:50.988Z,11.50
2023-05-25T14:07:17.883Z,11.83
2023-05-25T14:09:44.636Z,9.85
2023-05-25T14:12:13.527Z,7.68
2023-05-25T14:14:41.218Z,8.80
2023-05-25T14:17:07.860Z,7.50
2023-05-25T14:19:37.928Z,5.88
2023-05-25T14:22:13.469Z,9.07
2023-05-25T14:24:41.837Z,11.65
2023-05-25T14:29:35.225Z,8.82
2023-05-25T14:32:02.056Z,10.60
2023-05-25T14:34:29.702Z,10.52
2023-05-25T14:36:56.545Z,9.18
2023-05-25T14:39:23.259Z,9.77
2023-05-25T14:41:49.858Z,10.17
2023-05-25T14:44:16.793Z,10.30
2023-05-25T14:46:43.623Z,10.85
2023-05-25T14:49:10.420Z,10.63
2023-05-25T14:51:38.200Z,8.50
2023-05-25T14:54:06.464Z,9.73
2023-05-25T14:56:33.334Z,11.85
2023-05-25T14:59:00.055Z,9.52
2023-05-25T15:01:26.933Z,10.00
2023-05-25T15:03:53.757Z,10.40
2023-05-25T15:06:20.558Z,7.95
2023-05-25T15:08:47.221Z,9.65
2023-05-25T15:11:13.895Z,7.43
2023-05-25T15:13:41.143Z,11.65
2023-05-25T15:18:37.726Z,9.73
2023-05-25T15:21:04.463Z,10.93
2023-05-25T15:23:31.629Z,8.85
2023-05-25T15:26:03.126Z,7.75
2023-05-25T15:28:32.643Z,10.85
2023-05-25T15:31:02.372Z,6.53
2023-05-25T15:33:39.863Z,8.32
2023-05-25T15:38:44.531Z,9.88
2023-05-25T15:41:15.142Z,8.27
2023-05-25T15:43:42.082Z,8.20
2023-05-25T15:46:08.748Z,8.23
2023-05-25T15:48:35.426Z,13.60
2023-05-25T15:51:02.027Z,13.80
2023-05-25T15:53:30.448Z,8.10
2023-05-25T15:55:57.315Z,7.93
2023-05-25T15:58:23.964Z,9.43
2023-05-25T16:00:50.701Z,9.50
2023-05-25T16:03:17.485Z,7.43
2023-05-25T16:05:44.325Z,7.35
2023-05-25T16:08:11.882Z,7.30
2023-05-25T16:13:05.089Z,6.22
2023-05-25T16:15:31.737Z,7.90
2023-05-25T16:17:58.978Z,9.07
2023-05-25T16:20:25.633Z,9.48
2023-05-25T16:22:52.413Z,8.23
2023-05-25T16:25:19.179Z,9.60
2023-05-25T16:27:46.016Z,8.15
2023-05-25T16:30:13.522Z,8.70
2023-05-25T16:32:40.492Z,5.15
2023-05-25T16:35:07.449Z,9.00
2023-05-25T16:37:34.081Z,8.88
2023-05-25T16:40:00.817Z,7.13
2023-05-25T16:42:27.421Z,7.10
2023-05-25T16:44:54.021Z,7.80
2023-05-25T16:47:20.730Z,9.63
2023-05-25T16:49:47.341Z,8.20
2023-05-25T16:52:15.039Z,6.60
2023-05-25T16:54:41.659Z,7.57
2023-05-25T16:57:11.391Z,10.50
2023-05-25T16:59:38.492Z,9.32
2023-05-25T17:02:05.446Z,10.00
2023-05-25T17:04:32.068Z,7.60
2023-05-25T17:06:58.738Z,8.70
2023-05-25T17:09:25.764Z,5.33
2023-05-25T17:11:53.681Z,7.80
2023-05-25T17:14:21.056Z,7.75
2023-05-25T17:16:47.868Z,9.73
2023-05-25T17:19:15.255Z,10.23
2023-05-25T17:21:43.687Z,8.73
2023-05-25T17:24:11.972Z,5.82
2023-05-25T17:26:40.422Z,8.02
2023-05-25T17:29:07.936Z,8.52
2023-05-25T17:31:38.007Z,7.57
2023-05-25T17:34:04.809Z,7.50
2023-05-25T17:36:32.118Z,7.90
2023-05-25T17:38:58.793Z,7.75
2023-05-25T17:41:26.417Z,7.90
2023-05-25T17:43:53.053Z,6.28
2023-05-25T17:46:19.715Z,7.03
2023-05-25T17:48:46.382Z,8.07
2023-05-25T17:51:13.298Z,8.70
2023-05-25T17:53:39.907Z,8.95
2023-05-25T17:58:41.262Z,8.20
2023-05-25T18:01:07.939Z,7.68
2023-05-25T18:03:34.864Z,9.17
2023-05-25T18:06:01.589Z,6.88
2023-05-25T18:08:28.591Z,6.97
2023-05-25T18:10:55.284Z,8.40
2023-05-25T18:13:22.628Z,8.37
2023-05-25T18:15:49.335Z,5.30
2023-05-25T18:18:16.781Z,8.57
2023-05-25T18:20:43.939Z,7.25
2023-05-25T18:23:10.802Z,8.57
2023-05-25T18:25:37.422Z,7.77
2023-05-25T18:28:04.154Z,9.13
2023-05-25T18:30:30.804Z,10.10
2023-05-25T18:32:58.231Z,8.68
2023-05-25T18:35:24.897Z,9.32
2023-05-25T18:37:51.532Z,10.82
2023-05-25T18:40:18.405Z,7.53
2023-05-25T18:42:45.011Z,9.53
2023-05-25T18:45:11.976Z,9.77
2023-05-25T18:47:39.158Z,8.53
2023-05-25T18:50:06.759Z,7.85
2023-05-25T18:52:33.385Z,6.32
2023-05-25T18:55:00.064Z,9.60
2023-05-25T18:57:26.812Z,7.47
2023-05-25T18:59:53.652Z,7.85
2023-05-25T19:02:20.562Z,12.67
2023-05-25T19:04:47.563Z,7.70
2023-05-25T19:07:14.500Z,9.80
2023-05-25T19:09:42.411Z,11.07
2023-05-25T19:12:09.459Z,6.75
2023-05-25T19:14:36.088Z,9.23
2023-05-25T19:17:02.853Z,11.23
2023-05-25T19:19:29.466Z,13.90
2023-05-25T19:21:56.152Z,7.55
2023-05-25T19:24:22.814Z,7.35
2023-05-25T19:26:50.040Z,11.52
2023-05-25T19:29:16.842Z,6.43
2023-05-25T19:31:43.620Z,9.25
2023-05-25T19:34:10.305Z,10.60
2023-05-25T19:36:38.164Z,9.50
2023-05-25T19:39:05.824Z,11.25
2023-05-25T19:41:32.560Z,11.10
2023-05-25T19:43:59.339Z,7.80
2023-05-25T19:46:27.530Z,8.88
2023-05-25T19:48:54.434Z,8.35
2023-05-25T19:51:21.468Z,10.63
2023-05-25T19:53:49.498Z,6.63
2023-05-25T19:56:16.123Z,9.38
2023-05-25T19:58:42.992Z,7.13
2023-05-25T20:01:09.820Z,8.17
2023-05-25T20:03:36.715Z,11.90
2023-05-25T20:06:04.198Z,8.03
2023-05-25T20:08:31.583Z,9.77
2023-05-25T20:10:58.220Z,9.98
2023-05-25T20:13:25.219Z,10.73
2023-05-25T20:15:51.915Z,10.60
2023-05-25T20:18:19.030Z,9.27
2023-05-25T20:20:46.189Z,9.87
2023-05-25T20:23:12.949Z,9.70
2023-05-25T20:25:39.570Z,11.30
2023-05-25T20:28:06.196Z,7.90
2023-05-25T20:30:32.839Z,8.85
2023-05-25T20:32:59.597Z,7.75
2023-05-25T20:35:26.419Z,10.30
2023-05-25T20:37:53.083Z,9.57
2023-05-25T20:40:19.694Z,8.45
2023-05-25T20:42:46.291Z,11.85
2023-05-25T20:45:13.040Z,9.43
2023-05-25T20:47:41.239Z,10.32
2023-05-25T20:50:08.227Z,8.45
2023-05-25T20:52:34.861Z,10.63
2023-05-25T20:55:01.533Z,13.80
2023-05-25T20:57:29.484Z,8.68
2023-05-25T21:00:00.316Z,10.23
2023-05-25T21:02:28.878Z,10.27
2023-05-25T21:04:55.656Z,10.75
2023-05-25T21:07:22.373Z,9.52
2023-05-25T21:09:48.975Z,9.70
2023-05-25T21:12:15.935Z,11.32
2023-05-25T21:14:42.617Z,8.63
2023-05-25T21:17:09.277Z,12.95
2023-05-25T21:19:36.171Z,9.55
2023-05-25T21:22:02.900Z,10.07
2023-05-25T21:24:29.552Z,10.25
2023-05-25T21:26:56.482Z,9.32
2023-05-25T21:29:23.207Z,10.37
2023-05-25T21:31:49.928Z,13.05
2023-05-25T21:34:16.583Z,10.65
2023-05-25T21:36:43.272Z,9.98
2023-05-25T21:39:09.931Z,12.13
2023-05-25T21:41:36.599Z,9.35
2023-05-25T21:44:03.317Z,11.35
2023-05-25T21:46:30.021Z,11.65
2023-05-25T21:48:56.900Z,10.20
2023-05-25T21:51:23.565Z,13.40
2023-05-25T21:53:50.196Z,10.48
2023-05-25T21:56:16.888Z,14.07
2023-05-25T21:58:43.630Z,10.98
2023-05-25T22:01:10.345Z,11.68
2023-05-25T22:03:37.395Z,13.07
2023-05-25T22:06:04.226Z,9.80
2023-05-25T22:08:31.024Z,12.70
2023-05-25T22:10:57.646Z,11.32
2023-05-25T22:13:24.359Z,9.50
2023-05-25T22:15:51.274Z,12.07
2023-05-25T22:18:17.961Z,10.20
2023-05-25T22:20:44.648Z,12.15
2023-05-25T22:23:12.421Z,13.05
2023-05-25T22:25:39.425Z,8.43
2023-05-25T22:28:06.139Z,9.20
2023-05-25T22:30:33.126Z,11.65
2023-05-25T22:32:59.793Z,12.60
2023-05-25T22:35:26.812Z,9.70
2023-05-25T22:37:53.552Z,12.00
2023-05-25T22:40:20.283Z,13.75
2023-05-25T22:42:50.382Z,10.55
2023-05-25T22:45:17.944Z,12.48
2023-05-25T22:47:44.826Z,10.10
2023-05-25T22:50:12.094Z,13.00
2023-05-25T22:52:40.846Z,14.23
2023-05-25T22:55:08.548Z,14.30
2023-05-25T22:57:35.504Z,12.48
2023-05-25T23:00:02.232Z,14.23
2023-05-25T23:02:28.954Z,12.95
2023-05-25T23:04:55.617Z,10.30
2023-05-25T23:07:22.255Z,10.18
2023-05-25T23:09:48.872Z,12.82
2023-05-25T23:12:15.531Z,11.68
2023-05-25T23:14:44.635Z,12.23
2023-05-25T23:17:11.470Z,13.63
2023-05-25T23:19:44.874Z,13.63
2023-05-25T23:22:11.657Z,15.10
2023-05-25T23:24:38.283Z,9.75
2023-05-25T23:27:06.631Z,12.98
2023-05-25T23:29:33.353Z,11.80
2023-05-25T23:32:00.047Z,11.85
2023-05-25T23:34:26.744Z,14.80
2023-05-25T23:36:54.212Z,14.57
2023-05-25T23:39:21.702Z,13.27
2023-05-25T23:41:48.304Z,11.18
2023-05-25T23:44:15.699Z,13.57
2023-05-25T23:46:42.478Z,14.55
2023-05-25T23:49:12.033Z,18.00
2023-05-25T23:51:38.757Z,15.25
2023-05-25T23:54:07.000Z,13.23
2023-05-25T23:56:33.685Z,21.77
